sensor_id;sensor_type;location;lat;lon;timestamp;P1;durP1;ratioP1;P2;durP2;ratioP2
21816;SDS011;13247;47.504;7.382;2023-02-03T00:02:43;8.73;;;1.88;;
21816;SDS011;13247;47.504;7.382;2023-02-03T00:05:28;8.27;;;1.65;;
21816;SDS011;13247;47.504;7.382;2023-02-03T00:08:14;2.58;;;1.25;;
21816;SDS011;13247;47.504;7.382;2023-02-03T00:11:01;4.20;;;1.42;;
21816;SDS011;13247;47.504;7.382;2023-02-03T00:13:46;2.88;;;1.48;;
21816;SDS011;13247;47.504;7.382;2023-02-03T00:16:31;7.85;;;2.13;;
21816;SDS011;13247;47.504;7.382;2023-02-03T00:19:16;5.47;;;1.65;;
21816;SDS011;13247;47.504;7.382;2023-02-03T00:22:00;10.45;;;2.08;;
21816;SDS011;13247;47.504;7.382;2023-02-03T00:24:45;2.83;;;1.35;;
21816;SDS011;13247;47.504;7.382;2023-02-03T00:27:30;2.65;;;0.98;;
21816;SDS011;13247;47.504;7.382;2023-02-03T00:30:15;6.10;;;1.45;;
21816;SDS011;13247;47.504;7.382;2023-02-03T00:33:00;4.47;;;1.55;;
21816;SDS011;13247;47.504;7.382;2023-02-03T00:35:45;5.65;;;1.50;;
21816;SDS011;13247;47.504;7.382;2023-02-03T00:38:30;3.28;;;1.30;;
21816;SDS011;13247;47.504;7.382;2023-02-03T00:41:15;4.55;;;1.33;;
21816;SDS011;13247;47.504;7.382;2023-02-03T00:44:01;3.17;;;1.20;;
21816;SDS011;13247;47.504;7.382;2023-02-03T00:46:46;3.65;;;1.17;;
21816;SDS011;13247;47.504;7.382;2023-02-03T00:49:30;2.85;;;0.98;;
21816;SDS011;13247;47.504;7.382;2023-02-03T00:52:15;2.60;;;1.35;;
21816;SDS011;13247;47.504;7.382;2023-02-03T00:54:59;4.40;;;1.23;;
21816;SDS011;13247;47.504;7.382;2023-02-03T00:57:44;4.88;;;1.10;;
21816;SDS011;13247;47.504;7.382;2023-02-03T01:00:29;3.13;;;0.93;;
21816;SDS011;13247;47.504;7.382;2023-02-03T01:03:13;4.30;;;1.23;;
21816;SDS011;13247;47.504;7.382;2023-02-03T01:08:58;8.23;;;1.55;;
21816;SDS011;13247;47.504;7.382;2023-02-03T01:11:46;7.13;;;1.40;;
21816;SDS011;13247;47.504;7.382;2023-02-03T01:14:30;1.98;;;0.90;;
21816;SDS011;13247;47.504;7.382;2023-02-03T01:17:15;8.48;;;1.67;;
21816;SDS011;13247;47.504;7.382;2023-02-03T01:19:59;3.97;;;1.00;;
21816;SDS011;13247;47.504;7.382;2023-02-03T01:22:45;3.20;;;1.05;;
21816;SDS011;13247;47.504;7.382;2023-02-03T01:25:30;5.65;;;0.90;;
21816;SDS011;13247;47.504;7.382;2023-02-03T01:28:14;2.92;;;1.13;;
21816;SDS011;13247;47.504;7.382;2023-02-03T01:31:09;7.85;;;1.52;;
21816;SDS011;13247;47.504;7.382;2023-02-03T01:33:56;7.47;;;1.65;;
21816;SDS011;13247;47.504;7.382;2023-02-03T01:36:41;5.80;;;1.25;;
21816;SDS011;13247;47.504;7.382;2023-02-03T01:39:25;3.70;;;1.70;;
21816;SDS011;13247;47.504;7.382;2023-02-03T01:42:11;4.95;;;1.52;;
21816;SDS011;13247;47.504;7.382;2023-02-03T01:44:57;4.28;;;1.10;;
21816;SDS011;13247;47.504;7.382;2023-02-03T01:47:43;8.07;;;1.55;;
21816;SDS011;13247;47.504;7.382;2023-02-03T01:50:33;3.35;;;1.30;;
21816;SDS011;13247;47.504;7.382;2023-02-03T01:53:19;3.15;;;1.25;;
21816;SDS011;13247;47.504;7.382;2023-02-03T01:56:05;3.78;;;1.33;;
21816;SDS011;13247;47.504;7.382;2023-02-03T01:58:50;2.88;;;1.30;;
21816;SDS011;13247;47.504;7.382;2023-02-03T02:01:35;2.88;;;1.60;;
21816;SDS011;13247;47.504;7.382;2023-02-03T02:04:21;3.58;;;0.90;;
21816;SDS011;13247;47.504;7.382;2023-02-03T02:07:12;4.63;;;1.30;;
21816;SDS011;13247;47.504;7.382;2023-02-03T02:09:57;6.13;;;1.20;;
21816;SDS011;13247;47.504;7.382;2023-02-03T02:12:43;3.78;;;1.55;;
21816;SDS011;13247;47.504;7.382;2023-02-03T02:31:27;2.22;;;1.00;;
21816;SDS011;13247;47.504;7.382;2023-02-03T02:34:29;5.97;;;1.13;;
21816;SDS011;13247;47.504;7.382;2023-02-03T02:40:24;4.07;;;1.00;;
21816;SDS011;13247;47.504;7.382;2023-02-03T02:43:39;6.43;;;1.40;;
21816;SDS011;13247;47.504;7.382;2023-02-03T02:46:34;2.50;;;0.98;;
21816;SDS011;13247;47.504;7.382;2023-02-03T02:49:27;4.15;;;1.08;;
21816;SDS011;13247;47.504;7.382;2023-02-03T02:52:17;3.08;;;1.08;;
21816;SDS011;13247;47.504;7.382;2023-02-03T02:55:06;8.57;;;1.30;;
21816;SDS011;13247;47.504;7.382;2023-02-03T02:57:57;8.18;;;1.30;;
21816;SDS011;13247;47.504;7.382;2023-02-03T03:00:48;3.42;;;0.98;;
21816;SDS011;13247;47.504;7.382;2023-02-03T03:03:32;7.15;;;1.38;;
21816;SDS011;13247;47.504;7.382;2023-02-03T03:09:20;5.95;;;1.35;;
21816;SDS011;13247;47.504;7.382;2023-02-03T03:12:09;4.50;;;1.10;;
21816;SDS011;13247;47.504;7.382;2023-02-03T03:15:03;5.55;;;1.00;;
21816;SDS011;13247;47.504;7.382;2023-02-03T03:17:59;3.17;;;1.02;;
21816;SDS011;13247;47.504;7.382;2023-02-03T03:20:50;4.13;;;1.30;;
21816;SDS011;13247;47.504;7.382;2023-02-03T03:23:39;2.30;;;0.98;;
21816;SDS011;13247;47.504;7.382;2023-02-03T03:26:27;3.33;;;0.82;;
21816;SDS011;13247;47.504;7.382;2023-02-03T03:29:46;3.97;;;1.15;;
21816;SDS011;13247;47.504;7.382;2023-02-03T03:32:36;6.25;;;1.40;;
21816;SDS011;13247;47.504;7.382;2023-02-03T03:35:21;5.93;;;1.45;;
21816;SDS011;13247;47.504;7.382;2023-02-03T03:38:11;2.65;;;1.10;;
21816;SDS011;13247;47.504;7.382;2023-02-03T03:41:08;2.67;;;1.10;;
21816;SDS011;13247;47.504;7.382;2023-02-03T03:44:04;14.35;;;1.55;;
21816;SDS011;13247;47.504;7.382;2023-02-03T03:46:58;7.05;;;1.83;;
21816;SDS011;13247;47.504;7.382;2023-02-03T03:50:15;3.08;;;0.98;;
21816;SDS011;13247;47.504;7.382;2023-02-03T03:53:08;5.78;;;1.15;;
21816;SDS011;13247;47.504;7.382;2023-02-03T03:55:56;2.83;;;1.00;;
21816;SDS011;13247;47.504;7.382;2023-02-03T03:58:44;3.13;;;1.10;;
21816;SDS011;13247;47.504;7.382;2023-02-03T04:01:32;1.50;;;0.93;;
21816;SDS011;13247;47.504;7.382;2023-02-03T04:04:17;3.08;;;1.08;;
21816;SDS011;13247;47.504;7.382;2023-02-03T04:07:03;2.75;;;1.30;;
21816;SDS011;13247;47.504;7.382;2023-02-03T04:09:48;1.20;;;0.82;;
21816;SDS011;13247;47.504;7.382;2023-02-03T04:12:32;1.30;;;0.90;;
21816;SDS011;13247;47.504;7.382;2023-02-03T04:15:17;1.55;;;0.80;;
21816;SDS011;13247;47.504;7.382;2023-02-03T04:18:02;1.05;;;0.70;;
21816;SDS011;13247;47.504;7.382;2023-02-03T04:20:48;2.83;;;1.02;;
21816;SDS011;13247;47.504;7.382;2023-02-03T04:23:33;2.60;;;1.23;;
21816;SDS011;13247;47.504;7.382;2023-02-03T04:26:17;2.15;;;1.00;;
21816;SDS011;13247;47.504;7.382;2023-02-03T04:29:02;3.03;;;1.20;;
21816;SDS011;13247;47.504;7.382;2023-02-03T04:31:46;2.22;;;1.00;;
21816;SDS011;13247;47.504;7.382;2023-02-03T04:34:31;2.92;;;1.00;;
21816;SDS011;13247;47.504;7.382;2023-02-03T04:37:16;2.53;;;0.90;;
21816;SDS011;13247;47.504;7.382;2023-02-03T04:40:00;2.55;;;1.05;;
21816;SDS011;13247;47.504;7.382;2023-02-03T04:42:46;1.15;;;0.95;;
21816;SDS011;13247;47.504;7.382;2023-02-03T04:45:30;2.05;;;1.00;;
21816;SDS011;13247;47.504;7.382;2023-02-03T04:48:15;2.50;;;1.20;;
21816;SDS011;13247;47.504;7.382;2023-02-03T04:51:03;3.40;;;1.13;;
21816;SDS011;13247;47.504;7.382;2023-02-03T04:53:50;1.10;;;0.77;;
21816;SDS011;13247;47.504;7.382;2023-02-03T04:56:35;4.07;;;1.27;;
21816;SDS011;13247;47.504;7.382;2023-02-03T04:59:20;3.92;;;1.40;;
21816;SDS011;13247;47.504;7.382;2023-02-03T05:02:05;5.25;;;1.10;;
21816;SDS011;13247;47.504;7.382;2023-02-03T05:04:50;5.93;;;1.20;;
21816;SDS011;13247;47.504;7.382;2023-02-03T05:07:35;2.53;;;1.10;;
21816;SDS011;13247;47.504;7.382;2023-02-03T05:10:19;1.77;;;0.90;;
21816;SDS011;13247;47.504;7.382;2023-02-03T05:13:04;2.72;;;1.58;;
21816;SDS011;13247;47.504;7.382;2023-02-03T05:15:49;3.03;;;1.30;;
21816;SDS011;13247;47.504;7.382;2023-02-03T05:18:33;4.38;;;1.08;;
21816;SDS011;13247;47.504;7.382;2023-02-03T05:21:18;1.95;;;1.10;;
21816;SDS011;13247;47.504;7.382;2023-02-03T05:24:03;5.25;;;1.30;;
21816;SDS011;13247;47.504;7.382;2023-02-03T05:26:50;4.97;;;1.88;;
21816;SDS011;13247;47.504;7.382;2023-02-03T05:29:34;4.53;;;1.75;;
21816;SDS011;13247;47.504;7.382;2023-02-03T05:32:19;6.38;;;1.42;;
21816;SDS011;13247;47.504;7.382;2023-02-03T05:35:03;3.58;;;1.15;;
21816;SDS011;13247;47.504;7.382;2023-02-03T05:37:49;3.22;;;1.02;;
21816;SDS011;13247;47.504;7.382;2023-02-03T05:40:33;4.07;;;1.40;;
21816;SDS011;13247;47.504;7.382;2023-02-03T05:43:37;0.50;;;0.50;;
21816;SDS011;13247;47.504;7.382;2023-02-03T05:46:21;5.03;;;1.13;;
21816;SDS011;13247;47.504;7.382;2023-02-03T05:49:06;2.17;;;0.85;;
21816;SDS011;13247;47.504;7.382;2023-02-03T05:51:51;1.02;;;0.82;;
21816;SDS011;13247;47.504;7.382;2023-02-03T05:54:37;4.18;;;0.95;;
21816;SDS011;13247;47.504;7.382;2023-02-03T05:57:21;6.30;;;1.05;;
21816;SDS011;13247;47.504;7.382;2023-02-03T06:00:06;1.35;;;0.90;;
21816;SDS011;13247;47.504;7.382;2023-02-03T06:02:52;2.42;;;0.80;;
21816;SDS011;13247;47.504;7.382;2023-02-03T06:05:37;6.38;;;0.80;;
21816;SDS011;13247;47.504;7.382;2023-02-03T06:08:23;1.73;;;1.05;;
21816;SDS011;13247;47.504;7.382;2023-02-03T06:11:11;0.93;;;0.80;;
21816;SDS011;13247;47.504;7.382;2023-02-03T06:13:56;1.48;;;0.70;;
21816;SDS011;13247;47.504;7.382;2023-02-03T06:16:41;2.47;;;0.90;;
21816;SDS011;13247;47.504;7.382;2023-02-03T06:19:26;0.90;;;0.70;;
21816;SDS011;13247;47.504;7.382;2023-02-03T06:22:12;2.88;;;0.80;;
21816;SDS011;13247;47.504;7.382;2023-02-03T06:24:56;1.17;;;0.80;;
21816;SDS011;13247;47.504;7.382;2023-02-03T06:27:42;0.98;;;0.63;;
21816;SDS011;13247;47.504;7.382;2023-02-03T06:30:26;1.30;;;0.90;;
21816;SDS011;13247;47.504;7.382;2023-02-03T06:33:11;2.25;;;1.10;;
21816;SDS011;13247;47.504;7.382;2023-02-03T06:35:56;1.33;;;0.75;;
21816;SDS011;13247;47.504;7.382;2023-02-03T06:38:41;0.80;;;0.73;;
21816;SDS011;13247;47.504;7.382;2023-02-03T06:41:25;3.58;;;1.10;;
21816;SDS011;13247;47.504;7.382;2023-02-03T06:44:13;4.32;;;1.42;;
21816;SDS011;13247;47.504;7.382;2023-02-03T06:46:58;3.72;;;1.20;;
21816;SDS011;13247;47.504;7.382;2023-02-03T06:49:44;1.27;;;1.00;;
21816;SDS011;13247;47.504;7.382;2023-02-03T06:52:29;3.67;;;0.98;;
21816;SDS011;13247;47.504;7.382;2023-02-03T06:55:13;1.08;;;0.88;;
21816;SDS011;13247;47.504;7.382;2023-02-03T06:57:58;1.27;;;0.90;;
21816;SDS011;13247;47.504;7.382;2023-02-03T07:00:43;1.05;;;0.90;;
21816;SDS011;13247;47.504;7.382;2023-02-03T07:03:27;2.30;;;1.10;;
21816;SDS011;13247;47.504;7.382;2023-02-03T07:06:12;3.38;;;1.00;;
21816;SDS011;13247;47.504;7.382;2023-02-03T07:08:58;3.70;;;1.17;;
21816;SDS011;13247;47.504;7.382;2023-02-03T07:11:43;2.20;;;1.30;;
21816;SDS011;13247;47.504;7.382;2023-02-03T07:14:28;5.10;;;1.90;;
21816;SDS011;13247;47.504;7.382;2023-02-03T07:17:13;3.67;;;1.75;;
21816;SDS011;13247;47.504;7.382;2023-02-03T07:19:58;4.40;;;1.73;;
21816;SDS011;13247;47.504;7.382;2023-02-03T07:22:42;2.03;;;1.50;;
21816;SDS011;13247;47.504;7.382;2023-02-03T07:25:29;6.63;;;1.45;;
21816;SDS011;13247;47.504;7.382;2023-02-03T07:28:14;1.67;;;1.20;;
21816;SDS011;13247;47.504;7.382;2023-02-03T07:30:58;6.13;;;1.50;;
21816;SDS011;13247;47.504;7.382;2023-02-03T07:33:47;9.85;;;4.65;;
21816;SDS011;13247;47.504;7.382;2023-02-03T07:36:31;4.72;;;2.58;;
21816;SDS011;13247;47.504;7.382;2023-02-03T07:39:16;7.13;;;2.95;;
21816;SDS011;13247;47.504;7.382;2023-02-03T07:42:00;5.85;;;3.47;;
21816;SDS011;13247;47.504;7.382;2023-02-03T07:44:45;3.20;;;1.75;;
21816;SDS011;13247;47.504;7.382;2023-02-03T07:47:29;4.70;;;2.50;;
21816;SDS011;13247;47.504;7.382;2023-02-03T07:50:14;11.80;;;4.75;;
21816;SDS011;13247;47.504;7.382;2023-02-03T07:52:59;11.50;;;5.53;;
21816;SDS011;13247;47.504;7.382;2023-02-03T07:55:44;18.25;;;6.95;;
21816;SDS011;13247;47.504;7.382;2023-02-03T07:58:28;22.88;;;10.05;;
21816;SDS011;13247;47.504;7.382;2023-02-03T08:01:14;9.20;;;2.97;;
21816;SDS011;13247;47.504;7.382;2023-02-03T08:03:59;3.60;;;2.10;;
21816;SDS011;13247;47.504;7.382;2023-02-03T08:06:44;7.65;;;1.30;;
21816;SDS011;13247;47.504;7.382;2023-02-03T08:09:29;2.10;;;1.02;;
21816;SDS011;13247;47.504;7.382;2023-02-03T08:12:13;2.83;;;1.58;;
21816;SDS011;13247;47.504;7.382;2023-02-03T08:14:58;3.17;;;1.10;;
21816;SDS011;13247;47.504;7.382;2023-02-03T08:17:43;5.55;;;1.30;;
21816;SDS011;13247;47.504;7.382;2023-02-03T08:20:28;1.67;;;0.98;;
21816;SDS011;13247;47.504;7.382;2023-02-03T08:23:13;1.33;;;1.02;;
21816;SDS011;13247;47.504;7.382;2023-02-03T08:25:58;2.30;;;1.00;;
21816;SDS011;13247;47.504;7.382;2023-02-03T08:28:46;2.13;;;1.40;;
21816;SDS011;13247;47.504;7.382;2023-02-03T08:31:32;4.43;;;1.42;;
21816;SDS011;13247;47.504;7.382;2023-02-03T08:34:17;17.02;;;4.30;;
21816;SDS011;13247;47.504;7.382;2023-02-03T08:37:02;10.00;;;3.40;;
21816;SDS011;13247;47.504;7.382;2023-02-03T08:39:46;11.38;;;5.05;;
21816;SDS011;13247;47.504;7.382;2023-02-03T08:42:31;4.00;;;2.50;;
21816;SDS011;13247;47.504;7.382;2023-02-03T08:45:16;2.92;;;1.77;;
21816;SDS011;13247;47.504;7.382;2023-02-03T08:48:01;11.00;;;2.47;;
21816;SDS011;13247;47.504;7.382;2023-02-03T08:50:45;7.38;;;1.58;;
21816;SDS011;13247;47.504;7.382;2023-02-03T08:53:35;14.57;;;2.00;;
21816;SDS011;13247;47.504;7.382;2023-02-03T08:56:19;9.75;;;2.28;;
21816;SDS011;13247;47.504;7.382;2023-02-03T08:59:04;3.92;;;1.25;;
21816;SDS011;13247;47.504;7.382;2023-02-03T09:01:48;5.05;;;1.60;;
21816;SDS011;13247;47.504;7.382;2023-02-03T09:04:34;5.95;;;1.20;;
21816;SDS011;13247;47.504;7.382;2023-02-03T09:07:19;7.97;;;1.38;;
21816;SDS011;13247;47.504;7.382;2023-02-03T09:10:04;2.83;;;1.63;;
21816;SDS011;13247;47.504;7.382;2023-02-03T09:12:49;1.85;;;1.50;;
21816;SDS011;13247;47.504;7.382;2023-02-03T09:15:34;3.67;;;1.65;;
21816;SDS011;13247;47.504;7.382;2023-02-03T09:18:19;4.93;;;2.08;;
21816;SDS011;13247;47.504;7.382;2023-02-03T09:21:05;7.22;;;2.13;;
21816;SDS011;13247;47.504;7.382;2023-02-03T09:23:53;1.58;;;1.17;;
21816;SDS011;13247;47.504;7.382;2023-02-03T09:26:38;3.30;;;1.20;;
21816;SDS011;13247;47.504;7.382;2023-02-03T09:29:22;5.35;;;1.60;;
21816;SDS011;13247;47.504;7.382;2023-02-03T09:32:07;4.18;;;1.20;;
21816;SDS011;13247;47.504;7.382;2023-02-03T09:34:52;2.40;;;1.40;;
21816;SDS011;13247;47.504;7.382;2023-02-03T09:37:37;4.30;;;1.10;;
21816;SDS011;13247;47.504;7.382;2023-02-03T09:40:23;4.38;;;2.58;;
21816;SDS011;13247;47.504;7.382;2023-02-03T09:43:22;4.47;;;1.73;;
21816;SDS011;13247;47.504;7.382;2023-02-03T09:46:23;7.05;;;1.58;;
21816;SDS011;13247;47.504;7.382;2023-02-03T09:49:12;4.32;;;1.80;;
21816;SDS011;13247;47.504;7.382;2023-02-03T09:58:19;1.73;;;0.90;;
21816;SDS011;13247;47.504;7.382;2023-02-03T10:01:07;1.23;;;1.02;;
21816;SDS011;13247;47.504;7.382;2023-02-03T10:04:04;3.20;;;1.10;;
21816;SDS011;13247;47.504;7.382;2023-02-03T10:13:26;2.05;;;0.90;;
21816;SDS011;13247;47.504;7.382;2023-02-03T10:19:36;3.30;;;0.80;;
21816;SDS011;13247;47.504;7.382;2023-02-03T10:22:53;2.10;;;0.70;;
21816;SDS011;13247;47.504;7.382;2023-02-03T10:25:53;4.05;;;0.90;;
21816;SDS011;13247;47.504;7.382;2023-02-03T10:28:40;2.17;;;1.00;;
21816;SDS011;13247;47.504;7.382;2023-02-03T10:31:36;2.15;;;0.90;;
21816;SDS011;13247;47.504;7.382;2023-02-03T10:34:21;2.10;;;1.20;;
21816;SDS011;13247;47.504;7.382;2023-02-03T10:37:12;4.43;;;0.90;;
21816;SDS011;13247;47.504;7.382;2023-02-03T10:40:00;1.38;;;0.85;;
21816;SDS011;13247;47.504;7.382;2023-02-03T10:42:46;3.28;;;0.77;;
21816;SDS011;13247;47.504;7.382;2023-02-03T10:45:50;2.55;;;0.90;;
21816;SDS011;13247;47.504;7.382;2023-02-03T10:48:35;1.85;;;0.60;;
21816;SDS011;13247;47.504;7.382;2023-02-03T10:51:24;1.90;;;1.08;;
21816;SDS011;13247;47.504;7.382;2023-02-03T10:57:18;5.18;;;2.00;;
21816;SDS011;13247;47.504;7.382;2023-02-03T11:00:04;2.10;;;1.02;;
21816;SDS011;13247;47.504;7.382;2023-02-03T11:06:14;7.30;;;2.28;;
21816;SDS011;13247;47.504;7.382;2023-02-03T11:08:59;7.93;;;1.75;;
21816;SDS011;13247;47.504;7.382;2023-02-03T11:11:45;3.80;;;1.40;;
21816;SDS011;13247;47.504;7.382;2023-02-03T11:14:34;5.80;;;1.90;;
21816;SDS011;13247;47.504;7.382;2023-02-03T11:20:15;1.58;;;1.00;;
21816;SDS011;13247;47.504;7.382;2023-02-03T11:23:00;3.33;;;1.02;;
21816;SDS011;13247;47.504;7.382;2023-02-03T11:25:47;3.03;;;1.20;;
21816;SDS011;13247;47.504;7.382;2023-02-03T11:28:32;2.22;;;0.98;;
21816;SDS011;13247;47.504;7.382;2023-02-03T11:31:21;6.55;;;1.10;;
21816;SDS011;13247;47.504;7.382;2023-02-03T11:34:21;1.35;;;0.80;;
21816;SDS011;13247;47.504;7.382;2023-02-03T11:37:24;2.63;;;1.00;;
21816;SDS011;13247;47.504;7.382;2023-02-03T11:43:16;2.25;;;1.20;;
21816;SDS011;13247;47.504;7.382;2023-02-03T11:46:02;2.10;;;1.38;;
21816;SDS011;13247;47.504;7.382;2023-02-03T11:55:41;3.55;;;2.03;;
21816;SDS011;13247;47.504;7.382;2023-02-03T11:59:06;4.43;;;1.73;;
21816;SDS011;13247;47.504;7.382;2023-02-03T12:14:51;1.77;;;1.23;;
21816;SDS011;13247;47.504;7.382;2023-02-03T12:17:49;0.88;;;0.75;;
21816;SDS011;13247;47.504;7.382;2023-02-03T12:30:21;1.05;;;0.40;;
21816;SDS011;13247;47.504;7.382;2023-02-03T12:33:17;2.38;;;0.60;;
21816;SDS011;13247;47.504;7.382;2023-02-03T12:36:23;1.00;;;0.73;;
21816;SDS011;13247;47.504;7.382;2023-02-03T12:39:15;1.42;;;0.47;;
21816;SDS011;13247;47.504;7.382;2023-02-03T12:42:26;0.68;;;0.50;;
21816;SDS011;13247;47.504;7.382;2023-02-03T12:45:24;0.40;;;0.38;;
21816;SDS011;13247;47.504;7.382;2023-02-03T12:48:16;1.25;;;0.40;;
21816;SDS011;13247;47.504;7.382;2023-02-03T12:51:07;1.95;;;0.70;;
21816;SDS011;13247;47.504;7.382;2023-02-03T12:53:58;3.92;;;0.52;;
21816;SDS011;13247;47.504;7.382;2023-02-03T12:57:12;0.45;;;0.20;;
21816;SDS011;13247;47.504;7.382;2023-02-03T13:00:15;1.17;;;0.30;;
21816;SDS011;13247;47.504;7.382;2023-02-03T13:03:12;0.77;;;0.60;;
21816;SDS011;13247;47.504;7.382;2023-02-03T13:09:38;1.38;;;0.35;;
21816;SDS011;13247;47.504;7.382;2023-02-03T13:18:08;2.95;;;0.60;;
21816;SDS011;13247;47.504;7.382;2023-02-03T13:20:58;1.50;;;1.10;;
21816;SDS011;13247;47.504;7.382;2023-02-03T13:23:43;0.20;;;0.20;;
21816;SDS011;13247;47.504;7.382;2023-02-03T13:32:35;0.75;;;0.50;;
21816;SDS011;13247;47.504;7.382;2023-02-03T13:35:50;1.27;;;0.50;;
21816;SDS011;13247;47.504;7.382;2023-02-03T13:38:44;0.40;;;0.40;;
21816;SDS011;13247;47.504;7.382;2023-02-03T13:41:36;0.90;;;0.50;;
21816;SDS011;13247;47.504;7.382;2023-02-03T13:44:46;1.10;;;0.43;;
21816;SDS011;13247;47.504;7.382;2023-02-03T13:50:28;3.60;;;0.77;;
21816;SDS011;13247;47.504;7.382;2023-02-03T13:53:21;2.97;;;0.63;;
21816;SDS011;13247;47.504;7.382;2023-02-03T13:56:43;2.45;;;1.33;;
21816;SDS011;13247;47.504;7.382;2023-02-03T14:05:08;2.08;;;0.45;;
21816;SDS011;13247;47.504;7.382;2023-02-03T14:08:46;0.80;;;0.70;;
21816;SDS011;13247;47.504;7.382;2023-02-03T14:17:03;1.02;;;0.70;;
21816;SDS011;13247;47.504;7.382;2023-02-03T14:22:38;0.80;;;0.80;;
21816;SDS011;13247;47.504;7.382;2023-02-03T14:25:23;6.65;;;0.65;;
21816;SDS011;13247;47.504;7.382;2023-02-03T14:28:37;0.70;;;0.70;;
21816;SDS011;13247;47.504;7.382;2023-02-03T14:31:23;3.25;;;0.98;;
21816;SDS011;13247;47.504;7.382;2023-02-03T14:34:10;0.90;;;0.55;;
21816;SDS011;13247;47.504;7.382;2023-02-03T14:36:56;0.70;;;0.68;;
21816;SDS011;13247;47.504;7.382;2023-02-03T14:43:26;1.75;;;0.70;;
21816;SDS011;13247;47.504;7.382;2023-02-03T14:52:36;3.90;;;1.38;;
21816;SDS011;13247;47.504;7.382;2023-02-03T14:55:36;1.40;;;1.00;;
21816;SDS011;13247;47.504;7.382;2023-02-03T14:59:00;2.13;;;0.70;;
21816;SDS011;13247;47.504;7.382;2023-02-03T15:04:32;3.85;;;2.40;;
21816;SDS011;13247;47.504;7.382;2023-02-03T15:07:37;2.05;;;1.00;;
21816;SDS011;13247;47.504;7.382;2023-02-03T15:10:41;6.03;;;1.80;;
21816;SDS011;13247;47.504;7.382;2023-02-03T15:13:28;1.83;;;1.00;;
21816;SDS011;13247;47.504;7.382;2023-02-03T15:16:15;2.63;;;1.58;;
21816;SDS011;13247;47.504;7.382;2023-02-03T15:19:13;1.13;;;0.77;;
21816;SDS011;13247;47.504;7.382;2023-02-03T15:22:01;5.07;;;1.40;;
21816;SDS011;13247;47.504;7.382;2023-02-03T15:25:01;65.47;;;25.80;;
21816;SDS011;13247;47.504;7.382;2023-02-03T15:28:10;26.83;;;10.15;;
21816;SDS011;13247;47.504;7.382;2023-02-03T15:37:05;19.98;;;9.43;;
21816;SDS011;13247;47.504;7.382;2023-02-03T15:40:02;2.65;;;1.42;;
21816;SDS011;13247;47.504;7.382;2023-02-03T15:43:01;2.05;;;1.50;;
21816;SDS011;13247;47.504;7.382;2023-02-03T15:54:33;5.05;;;2.40;;
21816;SDS011;13247;47.504;7.382;2023-02-03T15:57:28;2.10;;;1.30;;
21816;SDS011;13247;47.504;7.382;2023-02-03T16:00:38;2.85;;;2.00;;
21816;SDS011;13247;47.504;7.382;2023-02-03T16:06:31;21.70;;;9.80;;
21816;SDS011;13247;47.504;7.382;2023-02-03T16:09:28;9.57;;;6.68;;
21816;SDS011;13247;47.504;7.382;2023-02-03T16:15:01;2.63;;;0.93;;
21816;SDS011;13247;47.504;7.382;2023-02-03T16:17:52;0.98;;;0.80;;
21816;SDS011;13247;47.504;7.382;2023-02-03T16:20:41;0.95;;;0.80;;
21816;SDS011;13247;47.504;7.382;2023-02-03T16:23:33;2.65;;;1.02;;
21816;SDS011;13247;47.504;7.382;2023-02-03T16:26:18;2.35;;;0.80;;
21816;SDS011;13247;47.504;7.382;2023-02-03T16:32:15;2.78;;;1.13;;
21816;SDS011;13247;47.504;7.382;2023-02-03T16:35:20;2.50;;;1.75;;
21816;SDS011;13247;47.504;7.382;2023-02-03T16:38:24;16.10;;;11.95;;
21816;SDS011;13247;47.504;7.382;2023-02-03T16:41:27;7.88;;;7.03;;
21816;SDS011;13247;47.504;7.382;2023-02-03T16:44:32;27.42;;;19.85;;
21816;SDS011;13247;47.504;7.382;2023-02-03T16:47:37;19.52;;;12.13;;
21816;SDS011;13247;47.504;7.382;2023-02-03T16:50:40;10.02;;;6.82;;
21816;SDS011;13247;47.504;7.382;2023-02-03T16:53:32;20.02;;;14.30;;
21816;SDS011;13247;47.504;7.382;2023-02-03T16:56:17;5.97;;;4.70;;
21816;SDS011;13247;47.504;7.382;2023-02-03T16:59:02;14.60;;;8.50;;
21816;SDS011;13247;47.504;7.382;2023-02-03T17:01:46;5.80;;;4.05;;
21816;SDS011;13247;47.504;7.382;2023-02-03T17:04:31;21.75;;;8.00;;
21816;SDS011;13247;47.504;7.382;2023-02-03T17:07:16;10.57;;;7.97;;
21816;SDS011;13247;47.504;7.382;2023-02-03T17:10:01;5.82;;;4.32;;
21816;SDS011;13247;47.504;7.382;2023-02-03T17:12:46;20.08;;;10.15;;
21816;SDS011;13247;47.504;7.382;2023-02-03T17:15:33;5.38;;;3.97;;
21816;SDS011;13247;47.504;7.382;2023-02-03T17:18:26;12.40;;;6.60;;
21816;SDS011;13247;47.504;7.382;2023-02-03T17:21:12;3.75;;;2.80;;
21816;SDS011;13247;47.504;7.382;2023-02-03T17:23:59;22.05;;;15.88;;
21816;SDS011;13247;47.504;7.382;2023-02-03T17:26:43;5.25;;;3.30;;
21816;SDS011;13247;47.504;7.382;2023-02-03T17:29:28;8.20;;;6.60;;
21816;SDS011;13247;47.504;7.382;2023-02-03T17:32:13;32.15;;;22.77;;
21816;SDS011;13247;47.504;7.382;2023-02-03T17:34:59;13.80;;;10.45;;
21816;SDS011;13247;47.504;7.382;2023-02-03T17:37:44;27.92;;;20.60;;
21816;SDS011;13247;47.504;7.382;2023-02-03T17:40:28;44.20;;;27.73;;
21816;SDS011;13247;47.504;7.382;2023-02-03T17:43:13;48.80;;;24.40;;
21816;SDS011;13247;47.504;7.382;2023-02-03T17:45:57;80.75;;;43.35;;
21816;SDS011;13247;47.504;7.382;2023-02-03T17:48:42;51.13;;;29.80;;
21816;SDS011;13247;47.504;7.382;2023-02-03T17:51:27;113.55;;;57.72;;
21816;SDS011;13247;47.504;7.382;2023-02-03T17:54:12;45.97;;;27.55;;
21816;SDS011;13247;47.504;7.382;2023-02-03T17:56:57;5.88;;;3.15;;
21816;SDS011;13247;47.504;7.382;2023-02-03T17:59:42;29.58;;;12.70;;
21816;SDS011;13247;47.504;7.382;2023-02-03T18:02:27;26.65;;;10.88;;
21816;SDS011;13247;47.504;7.382;2023-02-03T18:05:11;7.63;;;3.08;;
21816;SDS011;13247;47.504;7.382;2023-02-03T18:07:56;1.85;;;1.35;;
21816;SDS011;13247;47.504;7.382;2023-02-03T18:10:41;3.42;;;1.75;;
21816;SDS011;13247;47.504;7.382;2023-02-03T18:13:26;7.25;;;4.43;;
21816;SDS011;13247;47.504;7.382;2023-02-03T18:16:12;3.42;;;1.83;;
21816;SDS011;13247;47.504;7.382;2023-02-03T18:18:59;2.88;;;1.30;;
21816;SDS011;13247;47.504;7.382;2023-02-03T18:21:46;2.67;;;1.20;;
21816;SDS011;13247;47.504;7.382;2023-02-03T18:24:30;2.30;;;1.33;;
21816;SDS011;13247;47.504;7.382;2023-02-03T18:27:15;4.15;;;1.67;;
21816;SDS011;13247;47.504;7.382;2023-02-03T18:30:00;4.75;;;2.70;;
21816;SDS011;13247;47.504;7.382;2023-02-03T18:32:48;7.28;;;3.42;;
21816;SDS011;13247;47.504;7.382;2023-02-03T18:35:35;5.38;;;3.22;;
21816;SDS011;13247;47.504;7.382;2023-02-03T18:38:19;5.50;;;2.88;;
21816;SDS011;13247;47.504;7.382;2023-02-03T18:41:05;2.28;;;1.65;;
21816;SDS011;13247;47.504;7.382;2023-02-03T18:46:42;4.32;;;2.47;;
21816;SDS011;13247;47.504;7.382;2023-02-03T18:49:26;5.43;;;1.90;;
21816;SDS011;13247;47.504;7.382;2023-02-03T18:52:11;1.05;;;0.88;;
21816;SDS011;13247;47.504;7.382;2023-02-03T18:54:56;1.60;;;0.77;;
21816;SDS011;13247;47.504;7.382;2023-02-03T18:57:40;2.63;;;1.38;;
21816;SDS011;13247;47.504;7.382;2023-02-03T19:00:25;5.75;;;2.17;;
21816;SDS011;13247;47.504;7.382;2023-02-03T19:03:09;2.03;;;1.38;;
21816;SDS011;13247;47.504;7.382;2023-02-03T19:05:54;1.70;;;1.25;;
21816;SDS011;13247;47.504;7.382;2023-02-03T19:08:39;1.50;;;1.20;;
21816;SDS011;13247;47.504;7.382;2023-02-03T19:11:23;1.65;;;1.40;;
21816;SDS011;13247;47.504;7.382;2023-02-03T19:14:08;3.38;;;1.58;;
21816;SDS011;13247;47.504;7.382;2023-02-03T19:16:56;6.75;;;3.22;;
21816;SDS011;13247;47.504;7.382;2023-02-03T19:19:42;3.55;;;2.17;;
21816;SDS011;13247;47.504;7.382;2023-02-03T19:22:28;13.15;;;5.57;;
21816;SDS011;13247;47.504;7.382;2023-02-03T19:25:14;12.35;;;5.00;;
21816;SDS011;13247;47.504;7.382;2023-02-03T19:27:59;5.10;;;2.10;;
21816;SDS011;13247;47.504;7.382;2023-02-03T19:30:45;10.43;;;4.47;;